Time;durP1;ratioP1;P1;durP2;ratioP2;P2;SDS_P1;SDS_P2;PMS_P1;PMS_P2;Temp;Humidity;BMP_temperature;BMP_pressure;BME280_temperature;BME280_humidity;BME280_pressure;Samples;Min_cycle;Max_cycle;Signal;HPM_P1;HPM_P2
2024/03/22 00:01:54;;;;;;;;;55.80;44.00;;;;;14.53;100.00;98943.19;6131753;28;96918;-58
2024/03/22 00:04:55;;;;;;;;;56.00;44.20;;;;;14.57;100.00;98949.75;6132503;28;97490;-59
2024/03/22 00:07:57;;;;;;;;;58.00;46.00;;;;;14.51;100.00;98948.88;6147092;28;96276;-57
2024/03/22 00:11:01;;;;;;;;;59.80;46.20;;;;;14.43;100.00;98943.84;6127127;28;96754;-58
2024/03/22 00:14:02;;;;;;;;;58.00;44.40;;;;;14.37;100.00;98952.94;6131131;28;96456;-58
2024/03/22 00:17:04;;;;;;;;;62.00;47.00;;;;;14.35;100.00;98946.94;6140323;28;96650;-57
2024/03/22 00:20:07;;;;;;;;;60.00;46.50;;;;;14.29;100.00;98951.44;6107554;28;96379;-57
2024/03/22 00:23:09;;;;;;;;;62.00;47.00;;;;;14.25;100.00;98946.75;6110651;28;96418;-57
2024/03/22 00:26:11;;;;;;;;;59.60;47.00;;;;;14.22;100.00;98948.03;6115210;28;96461;-57
2024/03/22 00:29:14;;;;;;;;;63.40;48.00;;;;;14.19;100.00;98951.25;6108458;28;98269;-57
2024/03/22 00:32:16;;;;;;;;;59.80;47.20;;;;;14.16;100.00;98959.06;6118500;28;96710;-57
2024/03/22 00:35:17;;;;;;;;;60.60;47.00;;;;;14.17;100.00;98952.59;6119960;28;96586;-58
2024/03/22 00:38:19;;;;;;;;;65.75;49.00;;;;;14.16;100.00;98948.22;6097101;28;98510;-58
2024/03/22 00:41:23;;;;;;;;;63.33;49.33;;;;;14.16;100.00;98942.78;6104013;28;96439;-58
2024/03/22 00:44:25;;;;;;;;;64.00;48.40;;;;;14.17;100.00;98955.28;6110635;28;96538;-57
2024/03/22 00:47:26;;;;;;;;;63.40;50.00;;;;;14.11;100.00;98929.13;6102283;28;96872;-57
2024/03/22 00:50:28;;;;;;;;;68.50;52.50;;;;;14.17;100.00;98945.25;6104604;28;96920;-57
2024/03/22 00:53:30;;;;;;;;;69.00;54.00;;;;;14.15;100.00;98944.69;6104329;28;96758;-58
2024/03/22 00:56:33;;;;;;;;;69.00;54.00;;;;;14.15;100.00;98943.84;6084207;28;97431;-55
2024/03/22 00:59:35;;;;;;;;;70.00;55.00;;;;;14.16;100.00;98946.34;6115002;28;96590;-56
2024/03/22 01:02:37;;;;;;;;;71.60;57.00;;;;;14.01;100.00;98921.66;6128359;28;96473;-57
2024/03/22 01:05:39;;;;;;;;;70.20;54.20;;;;;14.15;100.00;98943.84;6122466;28;96999;-58
2024/03/22 01:08:41;;;;;;;;;74.00;58.75;;;;;14.14;100.00;98940.31;6107785;28;96328;-57
2024/03/22 01:11:44;;;;;;;;;73.40;58.80;;;;;14.18;100.00;98941.47;6119517;28;97524;-56
2024/03/22 01:14:46;;;;;;;;;71.00;55.67;;;;;14.22;100.00;98939.13;6115345;28;97597;-56
2024/03/22 01:17:47;;;;;;;;;72.00;55.00;;;;;14.16;100.00;98938.19;6113720;28;96542;-57
2024/03/22 01:20:49;;;;;;;;;70.00;53.00;;;;;14.13;100.00;98937.84;6113069;28;96927;-57
2024/03/22 01:23:51;;;;;;;;;69.75;55.75;;;;;14.08;100.00;98935.84;6111127;28;97228;-57
2024/03/22 01:26:55;;;;;;;;;73.00;56.60;;;;;13.93;100.00;98910.38;6093245;28;96712;-57
2024/03/22 01:29:56;;;;;;;;;70.60;57.00;;;;;14.01;100.00;98926.25;6135050;28;96517;-57
2024/03/22 01:32:58;;;;;;;;;69.50;56.75;;;;;14.09;100.00;98923.94;6149787;28;96298;-58
2024/03/22 01:36:00;;;;;;;;;70.00;55.33;;;;;14.12;100.00;98933.50;6145974;28;96363;-58
2024/03/22 01:39:02;;;;;;;;;74.00;57.00;;;;;14.10;100.00;98922.06;6119514;28;98965;-58
2024/03/22 01:42:05;;;;;;;;;74.40;59.00;;;;;14.09;100.00;98926.66;6137934;28;96393;-57
2024/03/22 01:45:08;;;;;;;;;73.00;57.00;;;;;14.12;100.00;98925.38;6126679;28;98449;-57
2024/03/22 01:48:11;;;;;;;;;70.40;57.00;;;;;14.18;100.00;98925.19;6118225;28;96352;-58
2024/03/22 01:51:13;;;;;;;;;73.75;57.25;;;;;14.19;100.00;98921.44;6113759;28;98148;-56
2024/03/22 01:54:16;;;;;;;;;72.33;57.67;;;;;14.22;100.00;98928.28;6136424;28;96377;-58
2024/03/22 01:57:20;;;;;;;;;72.00;57.00;;;;;14.26;100.00;98932.13;6127643;28;98599;-57
2024/03/22 02:00:22;;;;;;;;;74.60;58.80;;;;;14.21;100.00;98926.63;6147953;28;96882;-56
2024/03/22 02:03:23;;;;;;;;;68.00;53.00;;;;;14.27;100.00;98926.44;6145774;23;96798;-53
2024/03/22 02:06:26;;;;;;;;;71.00;55.50;;;;;14.14;100.00;98931.34;6123583;28;97150;-52
2024/03/22 02:09:27;;;;;;;;;72.00;57.00;;;;;14.13;100.00;98927.81;6112863;28;96591;-52
2024/03/22 02:12:30;;;;;;;;;69.00;54.60;;;;;14.17;100.00;98934.41;6103092;28;96758;-53
2024/03/22 02:15:33;;;;;;;;;69.75;57.50;;;;;14.17;100.00;98934.41;6099737;28;96959;-52
2024/03/22 02:18:34;;;;;;;;;71.40;55.80;;;;;14.20;100.00;98933.94;6095331;28;96554;-52
2024/03/22 02:21:36;;;;;;;;;73.00;55.00;;;;;14.11;100.00;98929.97;6078399;28;97074;-53
2024/03/22 02:24:40;;;;;;;;;70.00;55.00;;;;;13.98;100.00;98934.84;6083522;28;96471;-53
2024/03/22 02:27:41;;;;;;;;;67.00;52.00;;;;;14.05;100.00;98938.25;6086862;28;97217;-53
2024/03/22 02:30:43;;;;;;;;;71.40;53.00;;;;;14.10;100.00;98938.34;6086334;28;96700;-53
2024/03/22 02:33:45;;;;;;;;;70.00;57.00;;;;;14.09;100.00;98940.22;6082305;28;97124;-53
2024/03/22 02:36:47;;;;;;;;;67.00;53.50;;;;;14.08;100.00;98938.56;6084011;28;96388;-54
2024/03/22 02:39:50;;;;;;;;;72.00;57.50;;;;;13.99;100.00;98931.91;6088742;28;96780;-54
2024/03/22 02:42:52;;;;;;;;;73.00;55.00;;;;;13.99;100.00;98940.03;6086051;28;96366;-53
2024/03/22 02:45:53;;;;;;;;;70.60;55.00;;;;;13.91;100.00;98934.19;6077728;28;96366;-53
2024/03/22 02:48:55;;;;;;;;;70.25;56.25;;;;;13.91;100.00;98934.19;6086849;28;96518;-53
2024/03/22 02:51:56;;;;;;;;;69.00;53.00;;;;;13.94;100.00;98939.09;6084330;28;96531;-53
2024/03/22 02:55:00;;;;;;;;;71.20;54.80;;;;;13.96;100.00;98950.53;6083476;28;96613;-53
2024/03/22 02:58:02;;;;;;;;;69.50;52.00;;;;;13.93;100.00;98935.56;6080607;28;96478;-53
2024/03/22 03:01:04;;;;;;;;;68.60;52.80;;;;;13.89;100.00;98948.78;6075446;28;96906;-52
2024/03/22 03:04:06;;;;;;;;;65.80;51.20;;;;;13.89;100.00;98935.25;6060355;28;96839;-55
2024/03/22 03:07:07;;;;;;;;;66.00;50.25;;;;;13.98;100.00;98942.97;6086891;28;97776;-54
2024/03/22 03:10:11;;;;;;;;;66.40;51.40;;;;;13.87;100.00;98931.97;6110398;28;97291;-57
2024/03/22 03:13:12;;;;;;;;;66.20;50.80;;;;;14.01;100.00;98940.63;6093944;28;97181;-56
2024/03/22 03:16:14;;;;;;;;;63.80;50.40;;;;;14.04;100.00;98942.84;6108674;28;96399;-57
2024/03/22 03:19:16;;;;;;;;;62.75;50.00;;;;;14.08;100.00;98944.00;6081346;28;96632;-56
2024/03/22 03:22:18;;;;;;;;;63.40;50.00;;;;;14.12;100.00;98936.22;6096538;28;96629;-56
2024/03/22 03:25:20;;;;;;;;;64.60;49.60;;;;;14.17;100.00;98933.59;6085758;28;97134;-57
2024/03/22 03:28:25;;;;;;;;;65.60;50.80;;;;;14.11;100.00;98921.00;6107738;28;96419;-57
2024/03/22 03:31:27;;;;;;;;;65.80;50.60;;;;;14.18;100.00;98930.63;6103981;28;97756;-57
2024/03/22 03:34:29;;;;;;;;;64.00;50.60;;;;;14.13;100.00;98935.13;6095813;28;98963;-57
2024/03/22 03:37:31;;;;;;;;;66.20;50.00;;;;;14.14;100.00;98929.47;6098801;28;96337;-58
2024/03/22 03:40:36;;;;;;;;;66.00;51.00;;;;;14.16;100.00;98927.34;6111206;28;96355;-57
2024/03/22 03:43:37;;;;;;;;;68.00;51.25;;;;;14.02;100.00;98917.88;6115892;28;96153;-58
2024/03/22 03:46:39;;;;;;;;;64.60;50.00;;;;;14.20;100.00;98924.97;6102658;28;96444;-58
2024/03/22 03:49:41;;;;;;;;;62.20;47.80;;;;;14.07;100.00;98900.88;6107137;28;96544;-57
2024/03/22 03:52:42;;;;;;;;;64.40;49.00;;;;;14.07;100.00;98925.28;6102703;28;96395;-58
2024/03/22 03:55:46;;;;;;;;;63.75;49.00;;;;;14.08;100.00;98922.31;6102174;28;97042;-57
2024/03/22 03:58:47;;;;;;;;;63.00;50.00;;;;;14.06;100.00;98919.03;6108051;28;96304;-58
2024/03/22 04:01:50;;;;;;;;;64.75;49.50;;;;;14.08;100.00;98922.31;6104846;28;96307;-56
2024/03/22 04:04:52;;;;;;;;;62.40;47.00;;;;;14.06;100.00;98919.03;6105803;28;96959;-58
2024/03/22 04:07:54;;;;;;;;;61.80;48.60;;;;;13.99;100.00;98907.50;6116862;28;96291;-57
2024/03/22 04:10:57;;;;;;;;;58.00;46.00;;;;;14.10;100.00;98919.34;6125172;28;96370;-57
2024/03/22 04:13:59;;;;;;;;;62.00;47.00;;;;;13.97;100.00;98885.25;6108893;28;96496;-57
2024/03/22 04:17:02;;;;;;;;;61.00;47.00;;;;;14.17;100.00;98910.00;6110588;28;96325;-57
2024/03/22 04:20:03;;;;;;;;;61.00;47.00;;;;;14.27;100.00;98918.31;6082167;28;96359;-56
2024/03/22 04:23:06;;;;;;;;;60.20;45.80;;;;;14.32;100.00;98926.53;6095876;28;96782;-56
2024/03/22 04:26:08;;;;;;;;;58.40;45.40;;;;;14.17;100.00;98898.34;6087106;28;97196;-56
2024/03/22 04:29:11;;;;;;;;;61.00;46.00;;;;;14.36;100.00;98926.06;6090479;28;97236;-56
2024/03/22 04:32:12;;;;;;;;;60.40;46.20;;;;;14.36;100.00;98924.22;6071687;28;97296;-56
2024/03/22 04:35:14;;;;;;;;;55.40;44.40;;;;;14.37;100.00;98914.97;6081344;28;96352;-56
2024/03/22 04:38:17;;;;;;;;;62.00;46.00;;;;;14.43;100.00;98926.75;6087009;28;96735;-56
2024/03/22 04:41:20;;;;;;;;;58.20;45.40;;;;;14.48;100.00;98930.38;6091364;28;96641;-56
2024/03/22 04:44:22;;;;;;;;;60.00;45.00;;;;;14.52;100.00;98919.84;6082116;28;96464;-56
2024/03/22 04:47:25;;;;;;;;;57.25;45.00;;;;;14.47;100.00;98927.88;6098481;28;97016;-56
2024/03/22 04:50:26;;;;;;;;;55.00;43.00;;;;;14.48;100.00;98924.94;6094750;28;96599;-56
2024/03/22 04:53:28;;;;;;;;;57.00;45.00;;;;;14.48;100.00;98933.06;6087729;28;97871;-56
2024/03/22 04:56:31;;;;;;;;;55.00;43.60;;;;;14.41;100.00;98932.44;6087285;28;96361;-56
2024/03/22 04:59:33;;;;;;;;;59.60;44.80;;;;;14.33;100.00;98925.47;6090772;28;96652;-56
2024/03/22 05:02:35;;;;;;;;;59.00;45.00;;;;;14.40;100.00;98928.06;6089143;28;96957;-56
2024/03/22 05:05:37;;;;;;;;;55.20;44.00;;;;;14.38;100.00;98922.06;6101447;28;96751;-57
2024/03/22 05:08:39;;;;;;;;;55.00;42.75;;;;;14.51;100.00;98939.91;6085108;28;97634;-57
2024/03/22 05:11:43;;;;;;;;;55.40;43.00;;;;;14.50;100.00;98936.38;6081692;28;97337;-56
2024/03/22 05:14:44;;;;;;;;;54.00;43.00;;;;;14.55;100.00;98933.75;6077002;28;96878;-56
2024/03/22 05:17:46;;;;;;;;;56.40;45.00;;;;;14.59;100.00;98940.31;6089874;28;97471;-56
2024/03/22 05:20:47;;;;;;;;;55.60;43.00;;;;;14.47;100.00;98944.16;6086753;28;96587;-56
2024/03/22 05:23:50;;;;;;;;;53.60;43.00;;;;;14.49;100.00;98936.63;6092841;28;96905;-56
2024/03/22 05:26:54;;;;;;;;;53.00;41.00;;;;;14.42;100.00;98942.19;6089767;28;96645;-56
2024/03/22 05:29:55;;;;;;;;;52.00;42.00;;;;;14.45;100.00;98947.13;6103491;28;96489;-55
2024/03/22 05:32:57;;;;;;;;;53.50;42.00;;;;;14.51;100.00;98956.19;6120807;28;96442;-57
2024/03/22 05:35:59;;;;;;;;;55.00;42.00;;;;;14.53;100.00;98952.16;6113233;28;96616;-55
2024/03/22 05:39:01;;;;;;;;;50.00;40.60;;;;;14.63;100.00;98956.94;6111647;28;97014;-55
2024/03/22 05:42:04;;;;;;;;;50.60;41.00;;;;;14.67;100.00;98948.03;6121169;28;96559;-56
2024/03/22 05:45:07;;;;;;;;;49.40;39.60;;;;;14.74;100.00;98942.47;6124754;28;97044;-56
2024/03/22 05:48:08;;;;;;;;;50.00;39.00;;;;;14.83;100.00;98953.72;6116282;28;97106;-56
2024/03/22 05:51:10;;;;;;;;;49.50;39.50;;;;;14.87;100.00;98952.16;6105572;28;99127;-55
2024/03/22 05:54:11;;;;;;;;;52.00;42.00;;;;;14.96;100.00;98956.09;6116394;28;96745;-56
2024/03/22 05:57:15;;;;;;;;;46.00;38.00;;;;;15.03;100.00;98945.91;6113034;28;96589;-56
2024/03/22 06:00:16;;;;;;;;;50.80;40.20;;;;;15.13;100.00;98955.03;6117035;28;96984;-56
2024/03/22 06:03:18;;;;;;;;;50.00;38.50;;;;;15.18;100.00;98952.38;6074044;28;1228875;-56
2024/03/22 06:06:24;;;;;;;;;46.00;38.00;;;;;15.26;100.00;98947.56;6098711;28;96490;-57
2024/03/22 06:09:36;;;;;;;;;47.50;38.00;;;;;15.28;100.00;98950.88;6112026;28;97134;-55
2024/03/22 06:12:41;;;;;;;;;44.00;36.20;;;;;15.32;100.00;98958.28;6115544;28;97000;-57
2024/03/22 06:15:45;;;;;;;;;46.25;38.00;;;;;15.18;100.00;98925.22;6113798;28;96388;-57
2024/03/22 06:18:47;;;;;;;;;45.00;35.40;;;;;15.36;100.00;98956.69;6121557;28;96394;-57
2024/03/22 06:21:49;;;;;;;;;45.20;36.00;;;;;15.39;100.00;98948.06;6129451;28;97195;-56
2024/03/22 06:24:51;;;;;;;;;44.50;35.00;;;;;15.33;100.00;98934.66;6114576;28;96391;-58
2024/03/22 06:27:55;;;;;;;;;41.00;34.40;;;;;15.27;100.00;98933.75;6120217;28;96380;-57
2024/03/22 06:30:56;;;;;;;;;43.00;36.00;;;;;15.41;100.00;98939.63;6110119;28;96349;-57
2024/03/22 06:34:02;;;;;;;;;44.33;35.67;;;;;15.35;100.00;98949.59;6111507;28;96456;-57
2024/03/22 06:37:03;;;;;;;;;46.00;38.00;;;;;15.49;100.00;98956.31;6121977;28;96615;-57
2024/03/22 06:40:07;;;;;;;;;46.60;37.00;;;;;15.57;100.00;98955.09;6111367;28;96350;-57
2024/03/22 06:43:09;;;;;;;;;46.00;36.00;;;;;15.66;100.00;98959.03;6121129;28;96523;-57
2024/03/22 06:46:11;;;;;;;;;44.00;36.00;;;;;15.70;100.00;98959.31;6107797;28;96384;-59
2024/03/22 06:49:13;;;;;;;;;46.40;36.60;;;;;15.77;100.00;98955.38;6110121;28;97014;-56
2024/03/22 06:52:15;;;;;;;;;43.60;34.60;;;;;15.80;100.00;98957.56;6116312;28;96853;-58
2024/03/22 06:55:16;;;;;;;;;47.00;38.00;;;;;15.80;100.00;98954.00;6114616;28;96365;-56
2024/03/22 06:58:20;;;;;;;;;43.00;34.20;;;;;15.80;100.00;98952.13;6108877;28;96398;-58
2024/03/22 07:01:21;;;;;;;;;40.60;34.00;;;;;15.72;100.00;98947.13;6110300;28;96367;-57
2024/03/22 07:04:23;;;;;;;;;40.50;35.50;;;;;15.76;100.00;98945.56;6116804;28;96422;-57
2024/03/22 07:07:24;;;;;;;;;43.40;34.00;;;;;15.83;100.00;98948.09;6114608;28;96330;-57
2024/03/22 07:10:28;;;;;;;;;44.00;34.50;;;;;15.72;100.00;98958.00;6109130;28;96245;-57
2024/03/22 07:13:30;;;;;;;;;41.25;34.00;;;;;15.74;100.00;98966.72;6109092;28;96518;-57
2024/03/22 07:16:33;;;;;;;;;43.60;33.60;;;;;15.86;100.00;98956.56;6117191;28;97019;-57
2024/03/22 07:19:34;;;;;;;;;45.60;36.40;;;;;15.76;100.00;98958.31;6116874;28;96676;-55
2024/03/22 07:22:37;;;;;;;;;45.25;35.00;;;;;15.76;100.00;98958.31;6101995;28;98927;-56
2024/03/22 07:25:38;;;;;;;;;45.20;37.20;;;;;15.83;100.00;98956.25;6124896;28;96382;-57
2024/03/22 07:28:41;;;;;;;;;44.00;36.00;;;;;15.75;100.00;98943.09;6110697;28;96354;-57
2024/03/22 07:31:44;;;;;;;;;42.00;35.40;;;;;15.68;100.00;98947.91;6102537;28;96937;-57
2024/03/22 07:34:46;;;;;;;;;40.00;33.00;;;;;15.67;100.00;98947.09;6116277;28;96585;-57
2024/03/22 07:37:49;;;;;;;;;38.00;33.00;;;;;15.71;100.00;98948.22;6118007;28;96985;-58
2024/03/22 07:40:51;;;;;;;;;41.75;33.75;;;;;15.61;100.00;98948.09;6112123;28;96306;-56
2024/03/22 07:43:53;;;;;;;;;41.00;35.00;;;;;15.57;100.00;98947.78;6109601;28;96396;-58
2024/03/22 07:46:56;;;;;;;;;40.60;33.20;;;;;15.47;100.00;98946.78;6101301;28;98711;-57
2024/03/22 07:49:57;;;;;;;;;44.00;33.00;;;;;15.35;100.00;98938.75;6116462;28;96525;-57
2024/03/22 07:53:00;;;;;;;;;36.75;30.75;;;;;15.33;100.00;98934.66;6113393;28;96407;-57
2024/03/22 07:56:02;;;;;;;;;39.00;32.00;;;;;15.18;100.00;98933.38;6104156;28;96399;-57
2024/03/22 07:59:04;;;;;;;;;34.60;30.60;;;;;15.04;100.00;98932.09;6113634;28;96241;-57
2024/03/22 08:02:07;;;;;;;;;42.60;33.00;;;;;15.12;100.00;98926.22;6118224;28;96396;-57
2024/03/22 08:05:08;;;;;;;;;38.00;32.00;;;;;15.10;100.00;98919.41;6128742;28;96276;-56
2024/03/22 08:08:10;;;;;;;;;39.00;32.00;;;;;15.13;100.00;98921.59;6117908;28;96520;-57
2024/03/22 08:11:12;;;;;;;;;36.00;31.00;;;;;15.00;100.00;98921.97;6119752;28;96130;-57
2024/03/22 08:14:15;;;;;;;;;39.00;33.00;;;;;15.07;100.00;98925.31;6129929;28;96882;-59
2024/03/22 08:17:17;;;;;;;;;39.00;33.00;;;;;15.11;100.00;98929.16;6116016;28;96383;-55
2024/03/22 08:20:18;;;;;;;;;37.20;32.20;;;;;15.14;100.00;98923.25;6121306;28;96505;-57
2024/03/22 08:23:22;;;;;;;;;41.00;32.60;;;;;15.22;100.00;98927.44;6111690;28;99107;-56
2024/03/22 08:26:24;;;;;;;;;41.60;33.20;;;;;15.29;100.00;98923.47;6120378;28;97207;-55
2024/03/22 08:29:27;;;;;;;;;39.60;33.60;;;;;15.22;100.00;98914.66;6116469;28;96436;-58
2024/03/22 08:32:29;;;;;;;;;42.20;35.00;;;;;15.16;100.00;98908.34;6109558;28;96347;-56
2024/03/22 08:35:31;;;;;;;;;44.80;34.80;;;;;15.18;100.00;98908.09;6110606;28;96603;-55
2024/03/22 08:38:34;;;;;;;;;38.80;32.40;;;;;15.17;100.00;98914.59;6117674;28;96448;-56
2024/03/22 08:41:36;;;;;;;;;41.50;34.75;;;;;15.25;100.00;98916.88;6119667;28;96418;-56
2024/03/22 08:44:38;;;;;;;;;36.20;30.00;;;;;15.31;100.00;98926.75;6112478;28;96368;-58
2024/03/22 08:47:41;;;;;;;;;40.40;33.00;;;;;15.39;100.00;98920.88;6111531;28;96430;-56
2024/03/22 08:50:42;;;;;;;;;36.00;32.00;;;;;15.40;100.00;98925.22;6118711;28;96325;-57
2024/03/22 08:53:44;;;;;;;;;38.50;33.00;;;;;15.39;100.00;98920.88;6119642;28;96626;-57
2024/03/22 08:56:47;;;;;;;;;35.00;32.00;;;;;15.35;100.00;98898.00;6113459;28;96878;-57
2024/03/22 08:59:50;;;;;;;;;34.00;30.00;;;;;15.33;100.00;98913.75;6110802;28;97004;-57
2024/03/22 09:02:51;;;;;;;;;35.60;30.60;;;;;15.34;100.00;98922.72;6118557;28;96908;-57
2024/03/22 09:05:54;;;;;;;;;32.25;28.25;;;;;15.34;100.00;98920.81;6120800;28;96687;-56
2024/03/22 09:08:57;;;;;;;;;30.00;26.80;;;;;15.25;100.00;98925.03;6116244;28;96361;-56
2024/03/22 09:12:00;;;;;;;;;29.60;27.60;;;;;15.21;100.00;98921.16;6112855;28;96282;-57
2024/03/22 09:15:02;;;;;;;;;33.80;30.80;;;;;15.31;100.00;98924.03;6117808;28;96854;-57
2024/03/22 09:18:05;;;;;;;;;32.00;27.00;;;;;15.50;100.00;98916.38;6120663;28;96374;-58
2024/03/22 09:21:08;;;;;;;;;28.00;26.00;;;;;15.55;100.00;98911.88;6090119;28;98545;-57
2024/03/22 09:24:11;;;;;;;;;30.00;24.00;;;;;15.69;100.00;98906.84;6121644;28;96807;-56
2024/03/22 09:27:13;;;;;;;;;24.00;21.00;;;;;15.95;100.00;98902.53;6115026;28;96148;-57
2024/03/22 09:30:15;;;;;;;;;27.20;22.20;;;;;16.17;100.00;98911.47;6119670;28;96267;-59
2024/03/22 09:33:18;;;;;;;;;23.00;20.00;;;;;16.35;100.00;98900.22;6117660;28;96343;-58
2024/03/22 09:36:21;;;;;;;;;27.25;24.00;;;;;16.68;100.00;98903.78;6111192;28;96401;-57
2024/03/22 09:39:23;;;;;;;;;26.25;22.50;;;;;17.02;100.00;98905.09;6112200;28;96319;-57
2024/03/22 09:42:27;;;;;;;;;21.60;19.40;;;;;17.15;100.00;98906.56;6119314;28;96290;-58
2024/03/22 09:45:32;;;;;;;;;26.40;22.00;;;;;17.18;100.00;98906.84;6108959;28;96331;-58
2024/03/22 09:48:35;;;;;;;;;23.40;20.60;;;;;17.22;100.00;98912.56;6086410;28;98890;-57
2024/03/22 09:51:38;;;;;;;;;27.00;24.00;;;;;17.07;100.00;98899.69;6118747;28;96296;-57
2024/03/22 09:54:42;;;;;;;;;23.00;22.00;;;;;17.06;100.00;98900.75;6111824;28;96171;-58
2024/03/22 09:57:45;;;;;;;;;22.20;21.00;;;;;16.96;100.00;98902.63;6110399;28;96148;-58
2024/03/22 10:00:48;;;;;;;;;25.25;22.25;;;;;16.83;100.00;98901.97;6117251;28;96408;-57
2024/03/22 10:03:52;;;;;;;;;22.00;20.00;;;;;16.67;100.00;98902.94;6118076;28;96353;-56
2024/03/22 10:06:54;;;;;;;;;22.60;19.00;;;;;16.66;100.00;98897.78;6113798;28;96940;-58
2024/03/22 10:09:59;;;;;;;;;23.20;19.60;;;;;16.47;100.00;98895.41;6098270;28;96511;-57
2024/03/22 10:13:01;;;;;;;;;24.00;21.00;;;;;16.24;100.00;98887.59;6086999;28;96548;-55
2024/03/22 10:16:05;;;;;;;;;21.00;18.00;;;;;16.06;100.00;98898.03;6089942;28;96603;-56
2024/03/22 10:19:07;;;;;;;;;22.00;19.50;;;;;15.94;100.00;98890.84;6086336;28;96663;-55
2024/03/22 10:22:09;;;;;;;;;21.40;19.00;;;;;15.96;100.00;98890.59;6077279;28;97496;-55
2024/03/22 10:25:11;;;;;;;;;19.00;18.80;;;;;16.12;100.00;98889.66;6097273;28;97112;-55
2024/03/22 10:28:14;;;;;;;;;20.50;18.00;;;;;16.13;100.00;98882.31;6081953;28;96496;-55
2024/03/22 10:31:20;;;;;;;;;20.25;17.00;;;;;16.29;100.00;98886.81;6086637;28;96860;-55
2024/03/22 10:34:23;;;;;;;;;20.00;17.20;;;;;16.30;100.00;98892.00;6096489;28;96604;-55
2024/03/22 10:37:24;;;;;;;;;21.00;17.25;;;;;16.30;100.00;98881.13;6083000;28;96481;-56
2024/03/22 10:40:29;;;;;;;;;17.60;15.80;;;;;16.27;100.00;98878.09;6096831;28;96897;-56
2024/03/22 10:43:31;;;;;;;;;19.40;17.00;;;;;16.22;100.00;98875.34;6082069;28;97539;-56
2024/03/22 10:46:36;;;;;;;;;19.50;17.50;;;;;16.35;100.00;98878.44;6093728;28;96659;-56
2024/03/22 10:49:39;;;;;;;;;22.50;19.25;;;;;16.56;100.00;98870.47;6080909;28;96604;-56
2024/03/22 10:52:49;;;;;;;;;19.00;17.25;;;;;16.63;100.00;98871.06;6088979;28;96805;-55
2024/03/22 10:55:53;;;;;;;;;21.00;20.00;;;;;16.73;100.00;98846.63;6089381;28;96403;-55
2024/03/22 10:58:55;;;;;;;;;24.80;23.00;;;;;16.93;100.00;98871.28;6084397;28;96450;-55
2024/03/22 11:02:04;;;;;;;;;24.50;21.50;;;;;17.08;100.00;98857.75;6085147;28;96517;-55
2024/03/22 11:05:07;;;;;;;;;24.80;21.00;;;;;17.11;100.00;98870.00;6085652;28;96339;-56
2024/03/22 11:08:10;;;;;;;;;23.00;22.00;;;;;17.16;100.00;98851.78;6097002;28;96453;-56
2024/03/22 11:11:12;;;;;;;;;27.00;23.33;;;;;17.30;100.00;98854.84;6083272;28;97204;-56
2024/03/22 11:14:14;;;;;;;;;26.20;24.00;;;;;17.35;100.00;98846.69;6078583;28;96562;-55
2024/03/22 11:17:17;;;;;;;;;25.00;23.00;;;;;17.49;100.00;98836.13;6067722;28;97105;-56
2024/03/22 11:20:18;;;;;;;;;29.25;25.00;;;;;17.66;100.00;98831.28;6101302;28;96386;-53
2024/03/22 11:23:21;;;;;;;;;26.00;24.00;;;;;17.94;100.00;98832.69;6093890;28;96242;-54
2024/03/22 11:26:22;;;;;;;;;28.80;26.80;;;;;18.10;100.00;98820.72;6100458;28;96244;-53
2024/03/22 11:29:25;;;;;;;;;27.40;25.00;;;;;18.43;100.00;98822.09;6099137;28;97010;-53
2024/03/22 11:32:29;;;;;;;;;27.00;25.00;;;;;18.76;100.00;98816.09;6092469;28;96395;-53
2024/03/22 11:35:30;;;;;;;;;31.00;27.60;;;;;18.84;100.00;98785.47;6076360;28;98695;-53
2024/03/22 11:38:32;;;;;;;;;28.40;25.40;;;;;19.10;100.00;98810.78;6099751;28;97289;-52
2024/03/22 11:41:34;;;;;;;;;30.00;25.60;;;;;19.08;100.00;98817.63;6084062;28;96636;-52
2024/03/22 11:44:38;;;;;;;;;23.20;22.20;;;;;19.12;100.00;98805.03;6083389;28;96481;-52
2024/03/22 11:47:41;;;;;;;;;31.40;27.00;;;;;19.01;100.00;98796.88;6083456;28;96611;-52
2024/03/22 11:50:43;;;;;;;;;28.00;25.00;;;;;19.11;100.00;98790.53;6097714;28;97138;-52
2024/03/22 11:53:50;;;;;;;;;27.20;25.60;;;;;18.99;100.00;98785.41;6099336;28;96306;-52
2024/03/22 11:56:56;;;;;;;;;24.00;21.00;;;;;19.10;100.00;98783.47;6094052;28;96558;-53
2024/03/22 12:00:00;;;;;;;;;25.60;22.00;;;;;19.13;100.00;98776.63;6106663;28;96391;-53
2024/03/22 12:03:05;;;;;;;;;25.00;24.00;;;;;19.41;100.00;98776.75;6077555;28;96726;-53
2024/03/22 12:06:10;;;;;;;;;24.40;22.00;;;;;19.73;100.00;98767.28;6082764;28;96853;-52
2024/03/22 12:09:13;;;;;;;;;28.00;24.00;;;;;20.28;100.00;98755.88;6092510;28;96430;-53
2024/03/22 12:12:15;;;;;;;;;26.40;24.00;;;;;20.19;100.00;98751.31;6084039;28;96494;-53
2024/03/22 12:15:16;;;;;;;;;24.00;22.00;;;;;20.61;100.00;98756.97;6095354;28;96430;-53
2024/03/22 12:18:20;;;;;;;;;26.60;24.60;;;;;21.02;100.00;98759.25;6103105;28;96867;-54
2024/03/22 12:21:22;;;;;;;;;24.20;20.60;;;;;21.13;100.00;98758.00;6088704;28;96772;-53
2024/03/22 12:24:24;;;;;;;;;27.00;22.75;;;;;21.17;100.00;98759.09;6095946;28;96344;-54
2024/03/22 12:27:26;;;;;;;;;25.00;23.00;;;;;21.25;100.00;98738.44;6086836;28;100682;-53
2024/03/22 12:30:28;;;;;;;;;25.00;24.00;;;;;21.12;100.00;98748.16;6096629;28;96919;-57
2024/03/22 12:33:31;;;;;;;;;24.75;22.25;;;;;21.04;100.00;98741.41;6076359;28;96498;-57
2024/03/22 12:36:33;;;;;;;;;26.80;23.80;;;;;20.90;100.00;98721.31;6083093;28;96391;-57
2024/03/22 12:39:34;;;;;;;;;26.00;23.00;;;;;20.83;100.00;98720.84;6077506;28;97028;-57
2024/03/22 12:42:37;;;;;;;;;27.40;23.40;;;;;20.59;100.00;98718.09;6082342;28;96642;-57
2024/03/22 12:45:38;;;;;;;;;26.80;23.80;;;;;20.56;100.00;98723.34;6083678;28;96924;-57
2024/03/22 12:48:42;;;;;;;;;29.00;25.00;;;;;20.40;100.00;98722.69;6080005;28;96339;-57
2024/03/22 12:51:44;;;;;;;;;24.20;23.00;;;;;20.26;100.00;98724.44;6080623;28;96687;-56
2024/03/22 12:54:45;;;;;;;;;27.60;24.00;;;;;20.08;100.00;98727.91;6090419;28;97704;-57
2024/03/22 12:57:47;;;;;;;;;25.40;23.60;;;;;19.98;100.00;98728.00;6091824;28;96853;-56
2024/03/22 13:00:49;;;;;;;;;26.20;22.20;;;;;19.50;100.00;98678.56;6085871;28;96345;-57
2024/03/22 13:03:53;;;;;;;;;26.40;23.40;;;;;19.65;100.00;98724.94;6092836;28;96348;-56
2024/03/22 13:06:55;;;;;;;;;28.75;24.75;;;;;19.44;100.00;98720.72;6088971;28;96406;-56
2024/03/22 13:09:57;;;;;;;;;27.00;24.00;;;;;19.33;100.00;98699.97;6091658;28;96542;-58
2024/03/22 13:12:59;;;;;;;;;29.00;26.00;;;;;19.20;100.00;98711.56;6071005;28;97064;-57
2024/03/22 13:16:02;;;;;;;;;25.00;23.60;;;;;19.09;100.00;98707.22;6083256;28;96316;-56
2024/03/22 13:19:08;;;;;;;;;24.75;24.25;;;;;18.88;100.00;98703.78;6087574;28;96315;-57
2024/03/22 13:22:09;;;;;;;;;28.50;27.50;;;;;18.90;100.00;98710.59;6077949;28;97031;-57
2024/03/22 13:25:12;;;;;;;;;29.20;25.20;;;;;18.82;100.00;98711.16;6099288;28;96495;-56
2024/03/22 13:28:14;;;;;;;;;30.00;25.75;;;;;18.60;100.00;98702.53;6083169;28;97135;-57
2024/03/22 13:31:16;;;;;;;;;28.00;24.40;;;;;18.56;100.00;98696.00;6085934;28;96488;-58
2024/03/22 13:34:19;;;;;;;;;29.40;26.00;;;;;18.54;100.00;98698.97;6091012;28;96284;-56
2024/03/22 13:37:21;;;;;;;;;24.50;23.00;;;;;18.43;100.00;98697.34;6089425;28;96397;-56
2024/03/22 13:40:22;;;;;;;;;29.40;25.40;;;;;18.38;100.00;98689.16;6087734;28;96241;-53
2024/03/22 13:43:26;;;;;;;;;27.00;24.00;;;;;18.44;100.00;98689.97;6093086;28;98444;-52
2024/03/22 13:46:28;;;;;;;;;26.60;23.60;;;;;18.42;100.00;98681.25;6101911;28;96414;-52
2024/03/22 13:49:32;;;;;;;;;30.33;25.33;;;;;18.28;100.00;98678.28;6100716;28;96317;-52